sensor_id;sensor_type;location;lat;lon;timestamp;P1;durP1;ratioP1;P2;durP2;ratioP2
29006;SDS011;16104;48.642;9.008;2022-08-03T01:00:21;4.43;;;3.58;;
29006;SDS011;16104;48.642;9.008;2022-08-03T01:05:22;6.07;;;4.15;;
29006;SDS011;16104;48.642;9.008;2022-08-03T01:10:22;4.32;;;3.90;;
29006;SDS011;16104;48.642;9.008;2022-08-03T01:15:31;4.82;;;3.40;;
29006;SDS011;16104;48.642;9.008;2022-08-03T02:01:09;7.05;;;3.88;;
29006;SDS011;16104;48.642;9.008;2022-08-03T02:06:08;4.25;;;3.88;;
29006;SDS011;16104;48.642;9.008;2022-08-03T02:11:05;3.60;;;3.30;;
29006;SDS011;16104;48.642;9.008;2022-08-03T03:01:50;4.53;;;4.05;;
29006;SDS011;16104;48.642;9.008;2022-08-03T03:06:47;3.92;;;3.53;;
29006;SDS011;16104;48.642;9.008;2022-08-03T03:11:45;3.85;;;3.53;;
29006;SDS011;16104;48.642;9.008;2022-08-03T03:16:43;5.25;;;3.50;;
29006;SDS011;16104;48.642;9.008;2022-08-03T03:21:40;5.07;;;3.75;;
29006;SDS011;16104;48.642;9.008;2022-08-03T03:26:38;4.80;;;3.33;;
29006;SDS011;16104;48.642;9.008;2022-08-03T03:31:34;3.67;;;3.10;;
29006;SDS011;16104;48.642;9.008;2022-08-03T03:36:30;4.28;;;3.97;;
29006;SDS011;16104;48.642;9.008;2022-08-03T03:41:25;6.10;;;3.65;;
29006;SDS011;16104;48.642;9.008;2022-08-03T03:46:21;3.85;;;3.42;;
29006;SDS011;16104;48.642;9.008;2022-08-03T03:51:17;4.10;;;3.70;;
29006;SDS011;16104;48.642;9.008;2022-08-03T03:56:12;4.93;;;3.67;;
29006;SDS011;16104;48.642;9.008;2022-08-03T04:01:08;3.22;;;3.00;;
29006;SDS011;16104;48.642;9.008;2022-08-03T04:06:03;3.80;;;3.50;;
29006;SDS011;16104;48.642;9.008;2022-08-03T04:16:25;3.67;;;3.38;;
29006;SDS011;16104;48.642;9.008;2022-08-03T04:21:23;5.57;;;3.40;;
29006;SDS011;16104;48.642;9.008;2022-08-03T04:26:20;6.10;;;3.72;;
29006;SDS011;16104;48.642;9.008;2022-08-03T04:31:19;8.63;;;4.47;;
29006;SDS011;16104;48.642;9.008;2022-08-03T04:36:18;4.03;;;3.63;;
29006;SDS011;16104;48.642;9.008;2022-08-03T04:41:18;7.30;;;3.88;;
29006;SDS011;16104;48.642;9.008;2022-08-03T04:46:14;4.20;;;3.80;;
29006;SDS011;16104;48.642;9.008;2022-08-03T04:51:10;4.53;;;4.13;;
29006;SDS011;16104;48.642;9.008;2022-08-03T04:56:07;4.63;;;4.18;;
29006;SDS011;16104;48.642;9.008;2022-08-03T05:01:03;4.53;;;4.00;;
29006;SDS011;16104;48.642;9.008;2022-08-03T05:05:58;7.63;;;3.80;;
29006;SDS011;16104;48.642;9.008;2022-08-03T05:10:54;6.05;;;4.30;;
29006;SDS011;16104;48.642;9.008;2022-08-03T05:15:50;4.57;;;3.85;;
29006;SDS011;16104;48.642;9.008;2022-08-03T05:20:45;5.78;;;3.90;;
29006;SDS011;16104;48.642;9.008;2022-08-03T05:25:41;6.13;;;3.63;;
29006;SDS011;16104;48.642;9.008;2022-08-03T05:30:37;3.63;;;3.33;;
29006;SDS011;16104;48.642;9.008;2022-08-03T05:35:33;5.70;;;3.80;;
29006;SDS011;16104;48.642;9.008;2022-08-03T05:40:33;4.78;;;3.83;;
29006;SDS011;16104;48.642;9.008;2022-08-03T05:45:28;4.63;;;3.78;;
29006;SDS011;16104;48.642;9.008;2022-08-03T05:50:24;4.53;;;3.95;;
29006;SDS011;16104;48.642;9.008;2022-08-03T05:55:19;4.32;;;3.92;;
29006;SDS011;16104;48.642;9.008;2022-08-03T06:00:15;6.97;;;4.35;;
29006;SDS011;16104;48.642;9.008;2022-08-03T06:05:11;4.38;;;3.97;;
29006;SDS011;16104;48.642;9.008;2022-08-03T06:10:06;5.20;;;4.32;;
29006;SDS011;16104;48.642;9.008;2022-08-03T06:15:03;3.83;;;3.50;;
29006;SDS011;16104;48.642;9.008;2022-08-03T06:19:59;4.65;;;3.70;;
29006;SDS011;16104;48.642;9.008;2022-08-03T06:24:54;5.30;;;4.20;;
29006;SDS011;16104;48.642;9.008;2022-08-03T06:29:50;4.10;;;3.75;;
29006;SDS011;16104;48.642;9.008;2022-08-03T06:34:45;3.90;;;3.60;;
29006;SDS011;16104;48.642;9.008;2022-08-03T06:39:41;3.92;;;3.25;;
29006;SDS011;16104;48.642;9.008;2022-08-03T06:44:36;3.22;;;2.85;;
29006;SDS011;16104;48.642;9.008;2022-08-03T06:49:32;3.85;;;3.33;;
29006;SDS011;16104;48.642;9.008;2022-08-03T06:54:28;3.50;;;3.20;;
29006;SDS011;16104;48.642;9.008;2022-08-03T06:59:23;3.47;;;3.17;;
29006;SDS011;16104;48.642;9.008;2022-08-03T07:04:19;6.53;;;3.10;;
29006;SDS011;16104;48.642;9.008;2022-08-03T07:09:14;5.93;;;3.20;;
29006;SDS011;16104;48.642;9.008;2022-08-03T07:14:10;6.15;;;2.85;;
29006;SDS011;16104;48.642;9.008;2022-08-03T07:19:05;3.15;;;2.75;;
29006;SDS011;16104;48.642;9.008;2022-08-03T07:24:01;2.88;;;2.58;;
29006;SDS011;16104;48.642;9.008;2022-08-03T07:28:57;3.65;;;2.70;;
29006;SDS011;16104;48.642;9.008;2022-08-03T07:33:54;3.42;;;2.28;;
29006;SDS011;16104;48.642;9.008;2022-08-03T07:38:50;6.45;;;2.53;;
29006;SDS011;16104;48.642;9.008;2022-08-03T07:43:45;2.75;;;1.90;;
29006;SDS011;16104;48.642;9.008;2022-08-03T07:48:41;1.52;;;1.42;;
29006;SDS011;16104;48.642;9.008;2022-08-03T07:53:36;2.85;;;1.92;;
29006;SDS011;16104;48.642;9.008;2022-08-03T07:58:32;1.42;;;1.33;;
29006;SDS011;16104;48.642;9.008;2022-08-03T08:03:30;2.50;;;1.70;;
29006;SDS011;16104;48.642;9.008;2022-08-03T08:08:25;1.40;;;1.30;;
29006;SDS011;16104;48.642;9.008;2022-08-03T08:13:21;1.38;;;1.10;;
29006;SDS011;16104;48.642;9.008;2022-08-03T08:18:16;1.20;;;1.10;;
29006;SDS011;16104;48.642;9.008;2022-08-03T08:23:12;2.00;;;1.58;;
29006;SDS011;16104;48.642;9.008;2022-08-03T08:28:08;1.67;;;0.90;;
29006;SDS011;16104;48.642;9.008;2022-08-03T08:33:03;1.77;;;1.38;;
29006;SDS011;16104;48.642;9.008;2022-08-03T08:37:59;2.10;;;1.10;;
29006;SDS011;16104;48.642;9.008;2022-08-03T08:42:55;1.58;;;1.30;;
29006;SDS011;16104;48.642;9.008;2022-08-03T08:47:51;1.52;;;1.20;;
29006;SDS011;16104;48.642;9.008;2022-08-03T08:52:49;1.20;;;1.10;;
29006;SDS011;16104;48.642;9.008;2022-08-03T08:57:49;1.45;;;1.20;;
29006;SDS011;16104;48.642;9.008;2022-08-03T09:02:52;1.13;;;1.00;;
29006;SDS011;16104;48.642;9.008;2022-08-03T09:07:47;5.72;;;0.90;;
29006;SDS011;16104;48.642;9.008;2022-08-03T09:17:40;1.17;;;1.10;;
29006;SDS011;16104;48.642;9.008;2022-08-03T09:22:47;1.77;;;1.48;;
29006;SDS011;16104;48.642;9.008;2022-08-03T09:27:52;1.25;;;1.23;;
29006;SDS011;16104;48.642;9.008;2022-08-03T09:32:47;1.30;;;1.20;;
29006;SDS011;16104;48.642;9.008;2022-08-03T09:37:43;1.55;;;1.42;;
29006;SDS011;16104;48.642;9.008;2022-08-03T09:42:43;1.33;;;1.23;;
29006;SDS011;16104;48.642;9.008;2022-08-03T09:47:50;4.78;;;1.38;;
29006;SDS011;16104;48.642;9.008;2022-08-03T09:52:46;1.45;;;1.20;;
29006;SDS011;16104;48.642;9.008;2022-08-03T09:57:45;1.40;;;1.30;;
29006;SDS011;16104;48.642;9.008;2022-08-03T10:02:41;1.20;;;1.10;;
29006;SDS011;16104;48.642;9.008;2022-08-03T10:07:44;1.35;;;1.25;;
29006;SDS011;16104;48.642;9.008;2022-08-03T10:12:41;1.70;;;1.10;;
29006;SDS011;16104;48.642;9.008;2022-08-03T10:17:38;1.38;;;1.27;;
29006;SDS011;16104;48.642;9.008;2022-08-03T10:22:35;1.30;;;1.20;;
29006;SDS011;16104;48.642;9.008;2022-08-03T10:27:35;1.52;;;1.42;;
29006;SDS011;16104;48.642;9.008;2022-08-03T10:32:37;1.30;;;1.20;;
29006;SDS011;16104;48.642;9.008;2022-08-03T10:37:39;1.40;;;1.30;;
29006;SDS011;16104;48.642;9.008;2022-08-03T10:42:36;4.57;;;1.20;;
29006;SDS011;16104;48.642;9.008;2022-08-03T10:47:33;1.33;;;1.23;;
29006;SDS011;16104;48.642;9.008;2022-08-03T10:52:30;1.98;;;1.63;;
29006;SDS011;16104;48.642;9.008;2022-08-03T10:57:46;2.15;;;1.30;;
29006;SDS011;16104;48.642;9.008;2022-08-03T11:08:23;1.20;;;1.10;;
29006;SDS011;16104;48.642;9.008;2022-08-03T11:13:20;1.73;;;1.38;;
29006;SDS011;16104;48.642;9.008;2022-08-03T11:18:17;1.65;;;1.55;;
29006;SDS011;16104;48.642;9.008;2022-08-03T11:23:13;1.23;;;1.13;;
29006;SDS011;16104;48.642;9.008;2022-08-03T11:28:26;2.90;;;1.40;;
29006;SDS011;16104;48.642;9.008;2022-08-03T11:33:29;1.40;;;1.30;;
29006;SDS011;16104;48.642;9.008;2022-08-03T11:38:25;1.45;;;1.35;;
29006;SDS011;16104;48.642;9.008;2022-08-03T11:48:16;1.42;;;1.30;;
29006;SDS011;16104;48.642;9.008;2022-08-03T11:53:15;2.08;;;1.35;;
29006;SDS011;16104;48.642;9.008;2022-08-03T11:58:16;1.52;;;1.38;;
29006;SDS011;16104;48.642;9.008;2022-08-03T12:03:14;1.55;;;1.40;;
29006;SDS011;16104;48.642;9.008;2022-08-03T12:08:12;1.48;;;1.38;;
29006;SDS011;16104;48.642;9.008;2022-08-03T12:13:08;1.50;;;1.20;;
29006;SDS011;16104;48.642;9.008;2022-08-03T12:18:11;2.17;;;1.40;;
29006;SDS011;16104;48.642;9.008;2022-08-03T12:23:08;1.70;;;1.40;;
29006;SDS011;16104;48.642;9.008;2022-08-03T12:28:08;1.50;;;1.40;;
29006;SDS011;16104;48.642;9.008;2022-08-03T12:33:21;2.05;;;1.23;;
29006;SDS011;16104;48.642;9.008;2022-08-03T12:38:20;1.40;;;1.30;;
29006;SDS011;16104;48.642;9.008;2022-08-03T12:43:16;2.05;;;1.35;;
29006;SDS011;16104;48.642;9.008;2022-08-03T12:48:11;1.60;;;1.50;;
29006;SDS011;16104;48.642;9.008;2022-08-03T12:53:08;1.63;;;1.20;;
29006;SDS011;16104;48.642;9.008;2022-08-03T12:58:05;1.40;;;1.30;;
29006;SDS011;16104;48.642;9.008;2022-08-03T13:03:02;1.50;;;1.40;;
29006;SDS011;16104;48.642;9.008;2022-08-03T13:08:01;1.40;;;1.30;;
29006;SDS011;16104;48.642;9.008;2022-08-03T13:12:57;4.20;;;1.23;;
29006;SDS011;16104;48.642;9.008;2022-08-03T13:17:54;1.40;;;1.30;;
29006;SDS011;16104;48.642;9.008;2022-08-03T13:22:50;2.00;;;1.40;;
29006;SDS011;16104;48.642;9.008;2022-08-03T13:27:46;2.78;;;1.60;;
29006;SDS011;16104;48.642;9.008;2022-08-03T13:32:41;1.33;;;1.20;;
29006;SDS011;16104;48.642;9.008;2022-08-03T13:37:37;1.13;;;1.07;;
29006;SDS011;16104;48.642;9.008;2022-08-03T13:42:33;1.40;;;1.23;;
29006;SDS011;16104;48.642;9.008;2022-08-03T13:47:29;1.30;;;1.30;;
29006;SDS011;16104;48.642;9.008;2022-08-03T13:52:25;1.30;;;1.20;;
29006;SDS011;16104;48.642;9.008;2022-08-03T13:57:20;1.73;;;1.08;;
29006;SDS011;16104;48.642;9.008;2022-08-03T14:02:16;1.50;;;1.37;;
29006;SDS011;16104;48.642;9.008;2022-08-03T14:07:11;1.30;;;1.20;;
29006;SDS011;16104;48.642;9.008;2022-08-03T14:17:04;1.30;;;1.20;;
29006;SDS011;16104;48.642;9.008;2022-08-03T14:21:59;1.80;;;1.40;;
29006;SDS011;16104;48.642;9.008;2022-08-03T14:26:55;1.17;;;1.17;;
29006;SDS011;16104;48.642;9.008;2022-08-03T14:31:50;1.65;;;1.55;;
29006;SDS011;16104;48.642;9.008;2022-08-03T14:36:46;1.45;;;1.35;;
29006;SDS011;16104;48.642;9.008;2022-08-03T14:41:41;2.55;;;1.20;;
29006;SDS011;16104;48.642;9.008;2022-08-03T14:46:37;1.60;;;1.50;;
29006;SDS011;16104;48.642;9.008;2022-08-03T14:51:32;1.73;;;1.40;;
29006;SDS011;16104;48.642;9.008;2022-08-03T14:56:28;1.48;;;1.38;;
29006;SDS011;16104;48.642;9.008;2022-08-03T15:01:23;1.80;;;1.70;;
29006;SDS011;16104;48.642;9.008;2022-08-03T15:06:19;2.03;;;1.85;;
29006;SDS011;16104;48.642;9.008;2022-08-03T15:11:14;1.70;;;1.60;;
29006;SDS011;16104;48.642;9.008;2022-08-03T15:16:10;1.50;;;1.40;;
29006;SDS011;16104;48.642;9.008;2022-08-03T15:21:05;1.80;;;1.70;;
29006;SDS011;16104;48.642;9.008;2022-08-03T15:26:01;1.95;;;1.48;;
29006;SDS011;16104;48.642;9.008;2022-08-03T15:30:56;2.15;;;1.70;;
29006;SDS011;16104;48.642;9.008;2022-08-03T15:35:52;2.25;;;1.38;;
29006;SDS011;16104;48.642;9.008;2022-08-03T15:40:48;2.00;;;1.27;;
29006;SDS011;16104;48.642;9.008;2022-08-03T15:45:43;2.20;;;1.15;;
29006;SDS011;16104;48.642;9.008;2022-08-03T15:50:39;1.23;;;1.20;;
29006;SDS011;16104;48.642;9.008;2022-08-03T15:55:35;1.88;;;1.38;;
29006;SDS011;16104;48.642;9.008;2022-08-03T16:00:30;1.23;;;1.20;;
29006;SDS011;16104;48.642;9.008;2022-08-03T16:11:03;3.85;;;1.70;;
29006;SDS011;16104;48.642;9.008;2022-08-03T16:15:59;3.30;;;1.40;;
29006;SDS011;16104;48.642;9.008;2022-08-03T16:20:56;1.60;;;1.50;;
29006;SDS011;16104;48.642;9.008;2022-08-03T16:26:21;1.67;;;1.35;;
29006;SDS011;16104;48.642;9.008;2022-08-03T16:31:42;2.10;;;1.30;;
29006;SDS011;16104;48.642;9.008;2022-08-03T16:37:17;1.40;;;1.30;;
29006;SDS011;16104;48.642;9.008;2022-08-03T16:42:35;1.90;;;1.50;;
29006;SDS011;16104;48.642;9.008;2022-08-03T16:47:32;3.20;;;1.30;;
29006;SDS011;16104;48.642;9.008;2022-08-03T16:52:46;1.60;;;1.50;;
29006;SDS011;16104;48.642;9.008;2022-08-03T16:57:52;1.52;;;1.35;;
29006;SDS011;16104;48.642;9.008;2022-08-03T17:02:50;1.40;;;1.30;;
29006;SDS011;16104;48.642;9.008;2022-08-03T17:08:03;1.85;;;1.40;;
29006;SDS011;16104;48.642;9.008;2022-08-03T17:13:40;1.70;;;1.30;;
29006;SDS011;16104;48.642;9.008;2022-08-03T17:19:14;1.25;;;1.17;;
29006;SDS011;16104;48.642;9.008;2022-08-03T17:24:23;2.92;;;1.60;;
29006;SDS011;16104;48.642;9.008;2022-08-03T17:29:35;2.30;;;2.10;;
29006;SDS011;16104;48.642;9.008;2022-08-03T17:34:34;1.70;;;1.48;;
29006;SDS011;16104;48.642;9.008;2022-08-03T17:39:30;3.17;;;1.85;;
29006;SDS011;16104;48.642;9.008;2022-08-03T17:44:27;1.67;;;1.42;;
29006;SDS011;16104;48.642;9.008;2022-08-03T17:49:24;1.67;;;1.58;;
29006;SDS011;16104;48.642;9.008;2022-08-03T17:54:24;1.50;;;1.40;;
29006;SDS011;16104;48.642;9.008;2022-08-03T17:59:41;1.58;;;1.45;;
29006;SDS011;16104;48.642;9.008;2022-08-03T18:04:57;1.92;;;1.42;;
29006;SDS011;16104;48.642;9.008;2022-08-03T18:09:58;1.40;;;1.30;;
29006;SDS011;16104;48.642;9.008;2022-08-03T18:14:57;3.88;;;1.20;;
29006;SDS011;16104;48.642;9.008;2022-08-03T18:19:54;2.40;;;1.70;;
29006;SDS011;16104;48.642;9.008;2022-08-03T18:24:50;2.20;;;1.20;;
29006;SDS011;16104;48.642;9.008;2022-08-03T18:29:47;5.78;;;2.13;;
29006;SDS011;16104;48.642;9.008;2022-08-03T18:34:43;1.83;;;1.40;;
29006;SDS011;16104;48.642;9.008;2022-08-03T18:39:40;1.50;;;1.40;;
29006;SDS011;16104;48.642;9.008;2022-08-03T18:44:37;1.42;;;1.33;;
29006;SDS011;16104;48.642;9.008;2022-08-03T19:00:07;2.72;;;1.67;;
29006;SDS011;16104;48.642;9.008;2022-08-03T19:05:09;3.50;;;1.60;;
29006;SDS011;16104;48.642;9.008;2022-08-03T19:10:06;1.88;;;1.20;;
29006;SDS011;16104;48.642;9.008;2022-08-03T19:15:10;1.50;;;1.35;;
29006;SDS011;16104;48.642;9.008;2022-08-03T19:20:08;4.43;;;1.38;;
29006;SDS011;16104;48.642;9.008;2022-08-03T19:25:05;1.60;;;1.50;;
29006;SDS011;16104;48.642;9.008;2022-08-03T19:30:03;2.50;;;1.77;;
29006;SDS011;16104;48.642;9.008;2022-08-03T19:35:01;2.50;;;1.67;;
29006;SDS011;16104;48.642;9.008;2022-08-03T19:39:58;1.63;;;1.53;;
29006;SDS011;16104;48.642;9.008;2022-08-03T19:44:56;3.13;;;1.58;;
29006;SDS011;16104;48.642;9.008;2022-08-03T19:55:06;1.55;;;1.40;;
29006;SDS011;16104;48.642;9.008;2022-08-03T20:00:05;3.80;;;1.70;;
29006;SDS011;16104;48.642;9.008;2022-08-03T20:05:03;1.70;;;1.60;;
29006;SDS011;16104;48.642;9.008;2022-08-03T20:10:00;4.15;;;1.80;;
29006;SDS011;16104;48.642;9.008;2022-08-03T20:14:58;3.45;;;1.80;;
29006;SDS011;16104;48.642;9.008;2022-08-03T20:19:53;2.92;;;1.50;;
29006;SDS011;16104;48.642;9.008;2022-08-03T20:24:49;2.55;;;1.40;;
29006;SDS011;16104;48.642;9.008;2022-08-03T20:29:49;2.72;;;1.70;;
29006;SDS011;16104;48.642;9.008;2022-08-03T20:34:45;5.07;;;2.05;;
29006;SDS011;16104;48.642;9.008;2022-08-03T20:39:40;1.55;;;1.45;;
29006;SDS011;16104;48.642;9.008;2022-08-03T20:44:36;2.53;;;1.70;;
29006;SDS011;16104;48.642;9.008;2022-08-03T20:49:32;2.38;;;1.65;;
29006;SDS011;16104;48.642;9.008;2022-08-03T20:54:29;2.70;;;1.90;;
29006;SDS011;16104;48.642;9.008;2022-08-03T20:59:25;3.83;;;1.90;;
29006;SDS011;16104;48.642;9.008;2022-08-03T21:04:24;2.50;;;1.70;;
29006;SDS011;16104;48.642;9.008;2022-08-03T21:09:23;2.33;;;1.90;;
29006;SDS011;16104;48.642;9.008;2022-08-03T21:14:47;3.75;;;1.77;;
29006;SDS011;16104;48.642;9.008;2022-08-03T21:19:52;1.90;;;1.70;;
29006;SDS011;16104;48.642;9.008;2022-08-03T21:24:48;3.05;;;1.73;;
29006;SDS011;16104;48.642;9.008;2022-08-03T21:29:49;2.10;;;1.95;;
29006;SDS011;16104;48.642;9.008;2022-08-03T21:34:44;1.92;;;1.83;;
29006;SDS011;16104;48.642;9.008;2022-08-03T21:39:41;3.25;;;1.88;;
29006;SDS011;16104;48.642;9.008;2022-08-03T21:44:40;2.28;;;1.90;;
29006;SDS011;16104;48.642;9.008;2022-08-03T21:49:36;1.92;;;1.73;;
29006;SDS011;16104;48.642;9.008;2022-08-03T21:54:35;1.90;;;1.60;;
29006;SDS011;16104;48.642;9.008;2022-08-03T21:59:34;2.83;;;2.00;;
29006;SDS011;16104;48.642;9.008;2022-08-03T22:04:31;2.75;;;1.80;;
29006;SDS011;16104;48.642;9.008;2022-08-03T22:09:28;1.80;;;1.70;;
29006;SDS011;16104;48.642;9.008;2022-08-03T22:14:24;2.97;;;1.70;;
29006;SDS011;16104;48.642;9.008;2022-08-03T22:19:20;4.30;;;1.63;;
29006;SDS011;16104;48.642;9.008;2022-08-03T22:24:17;1.67;;;1.58;;
29006;SDS011;16104;48.642;9.008;2022-08-03T22:29:14;1.53;;;1.40;;
29006;SDS011;16104;48.642;9.008;2022-08-03T22:34:10;1.65;;;1.42;;
29006;SDS011;16104;48.642;9.008;2022-08-03T22:39:05;4.40;;;1.90;;
29006;SDS011;16104;48.642;9.008;2022-08-03T22:44:01;3.72;;;1.35;;
29006;SDS011;16104;48.642;9.008;2022-08-03T22:48:57;3.55;;;1.55;;
29006;SDS011;16104;48.642;9.008;2022-08-03T22:53:53;1.70;;;1.60;;
29006;SDS011;16104;48.642;9.008;2022-08-03T22:58:49;3.33;;;1.58;;
29006;SDS011;16104;48.642;9.008;2022-08-03T23:03:46;3.83;;;1.67;;
29006;SDS011;16104;48.642;9.008;2022-08-03T23:08:46;1.75;;;1.65;;
29006;SDS011;16104;48.642;9.008;2022-08-03T23:13:45;3.20;;;1.70;;
29006;SDS011;16104;48.642;9.008;2022-08-03T23:18:44;1.83;;;1.40;;
29006;SDS011;16104;48.642;9.008;2022-08-03T23:23:42;1.67;;;1.33;;
29006;SDS011;16104;48.642;9.008;2022-08-03T23:28:38;1.33;;;1.23;;
29006;SDS011;16104;48.642;9.008;2022-08-03T23:33:36;3.00;;;1.92;;
29006;SDS011;16104;48.642;9.008;2022-08-03T23:38:33;1.58;;;1.48;;
29006;SDS011;16104;48.642;9.008;2022-08-03T23:43:31;1.50;;;1.40;;
29006;SDS011;16104;48.642;9.008;2022-08-03T23:48:31;4.72;;;1.60;;
29006;SDS011;16104;48.642;9.008;2022-08-03T23:53:34;1.92;;;1.73;;
